EGS weather

Egilsstaðir Airport
Egilsstaðir, Eastern Region, Iceland

Public forecast

Using degrees Celsius for public forecast. Weather courtesy of forecast.io.

Current aviation weather report (METAR) for Egilsstaðir Airport

Retrieved 2019/12/08 00:00 UTC (11 minutes ago):

BIEG 080000Z 36010KT 6000 -SN SCT014 BKN030 OVC040 M03/M03 Q0986 R04/490295 RMK WIND GAGNHEIDI 07035KT

Aviation forecast (TAF) for Egilsstaðir Airport

Retrieved 2019-12-08 03:33 UTC (0 seconds ago):

TAF BIEG 080131Z 0803/0903 03014KT 9999 -SHSN SCT025 BKN035 TX02/0810Z TNM06/0903Z TEMPO 0803/0806 3000 SHSN BKN012 OVC020 TEMPO 0806/0813 02018G28KT 1500 SNRA BKN006 OVC010 TEMPO 0813/0900 4000 SHSN BKN015 BECMG 0900/0903 20008KT